createdAt,value
2022-10-18T00:04:36.690Z,14.88
2022-10-18T00:09:39.579Z,14.86
2022-10-18T00:14:42.243Z,14.81
2022-10-18T00:19:46.607Z,14.76
2022-10-18T00:24:49.341Z,14.71
2022-10-18T00:29:55.081Z,14.68
2022-10-18T00:34:57.714Z,14.65
2022-10-18T00:40:00.776Z,14.62
2022-10-18T00:45:16.675Z,14.56
2022-10-18T00:50:21.524Z,14.51
2022-10-18T00:55:31.317Z,14.44
2022-10-18T01:00:38.770Z,14.35
2022-10-18T01:05:45.719Z,14.26
2022-10-18T01:11:06.673Z,14.23
2022-10-18T01:16:17.942Z,14.21
2022-10-18T01:21:45.974Z,14.18
2022-10-18T01:27:11.690Z,14.12
2022-10-18T01:32:19.928Z,14.08
2022-10-18T01:37:23.056Z,14.06
2022-10-18T01:42:26.589Z,14.05
2022-10-18T01:47:29.763Z,14.05
2022-10-18T01:52:33.456Z,14.01
2022-10-18T01:57:41.897Z,14.00
2022-10-18T02:02:55.270Z,13.98
2022-10-18T02:08:23.297Z,13.98
2022-10-18T02:13:32.670Z,13.94
2022-10-18T02:18:42.674Z,13.89
2022-10-18T02:23:46.906Z,13.81
2022-10-18T02:28:49.626Z,13.76
2022-10-18T02:34:04.604Z,13.73
2022-10-18T02:39:14.649Z,13.71
2022-10-18T02:44:17.461Z,13.70
2022-10-18T02:49:20.142Z,13.67
2022-10-18T02:54:24.047Z,13.65
2022-10-18T02:59:26.726Z,13.63
2022-10-18T03:04:29.671Z,13.62
2022-10-18T03:09:32.596Z,13.59
2022-10-18T03:14:35.285Z,13.54
2022-10-18T03:19:38.889Z,13.48
2022-10-18T03:24:41.553Z,13.44
2022-10-18T03:29:44.227Z,13.44
2022-10-18T03:34:46.913Z,13.46
2022-10-18T03:39:49.582Z,13.47
2022-10-18T03:44:52.220Z,13.56
2022-10-18T03:49:57.136Z,13.67
2022-10-18T03:55:00.488Z,13.78
2022-10-18T04:00:04.560Z,13.89
2022-10-18T04:05:08.603Z,14.03
2022-10-18T04:10:11.282Z,14.13
2022-10-18T04:15:14.011Z,14.23
2022-10-18T04:20:16.946Z,14.33
2022-10-18T04:25:19.620Z,14.41
2022-10-18T04:30:22.347Z,14.49
2022-10-18T04:35:26.179Z,14.53
2022-10-18T04:40:28.879Z,14.56
2022-10-18T04:45:31.627Z,14.63
2022-10-18T04:50:34.300Z,14.70
2022-10-18T04:55:37.048Z,14.74
2022-10-18T05:00:40.248Z,14.76
2022-10-18T05:06:00.757Z,14.78
2022-10-18T05:11:05.016Z,14.81
2022-10-18T05:16:07.765Z,14.86
2022-10-18T05:21:10.959Z,14.91
2022-10-18T05:26:13.699Z,14.97
2022-10-18T05:31:16.728Z,15.01
2022-10-18T05:36:19.442Z,15.07
2022-10-18T05:41:22.387Z,15.10
2022-10-18T05:46:25.735Z,15.05
2022-10-18T05:51:28.495Z,15.01
2022-10-18T05:56:31.339Z,15.08
2022-10-18T06:01:34.154Z,15.12
2022-10-18T06:06:40.514Z,15.09
2022-10-18T06:11:44.342Z,15.11
2022-10-18T06:16:47.642Z,15.17
2022-10-18T06:21:58.046Z,15.24
2022-10-18T06:27:22.834Z,15.39
2022-10-18T06:32:46.247Z,15.54
2022-10-18T06:37:58.574Z,15.59
2022-10-18T06:43:19.558Z,15.65
2022-10-18T06:48:25.162Z,15.68
2022-10-18T06:53:30.780Z,15.69
2022-10-18T06:58:34.159Z,15.74
2022-10-18T07:03:37.549Z,15.84
2022-10-18T07:08:40.849Z,16.01
2022-10-18T07:13:43.718Z,16.16
2022-10-18T07:18:51.416Z,16.25
2022-10-18T07:23:54.808Z,16.32
2022-10-18T07:29:15.397Z,16.38
2022-10-18T07:34:18.258Z,16.39
2022-10-18T07:39:21.032Z,16.38
2022-10-18T07:44:26.150Z,16.41
2022-10-18T07:49:28.923Z,16.44
2022-10-18T07:54:32.029Z,16.50
2022-10-18T07:59:34.948Z,16.56
2022-10-18T08:04:37.654Z,16.62
2022-10-18T08:09:40.381Z,16.64
2022-10-18T08:14:43.051Z,16.56
2022-10-18T08:19:53.013Z,16.42
2022-10-18T08:25:09.139Z,16.35
2022-10-18T08:30:12.113Z,16.37
2022-10-18T08:35:15.343Z,16.41
2022-10-18T08:40:18.566Z,16.46
2022-10-18T08:45:37.450Z,16.52
2022-10-18T08:50:45.998Z,16.70
2022-10-18T08:56:16.156Z,16.82
2022-10-18T09:01:52.269Z,16.80
2022-10-18T09:07:24.137Z,16.74
2022-10-18T09:12:52.160Z,16.66
2022-10-18T09:18:13.162Z,16.56
2022-10-18T09:23:21.827Z,16.51
2022-10-18T09:28:43.003Z,16.61
2022-10-18T09:33:58.511Z,16.84
2022-10-18T09:39:28.622Z,17.09
2022-10-18T09:44:31.437Z,17.12
2022-10-18T09:49:44.406Z,16.94
2022-10-18T09:55:03.341Z,16.71
2022-10-18T10:00:16.857Z,16.63
2022-10-18T10:05:20.167Z,16.63
2022-10-18T10:10:28.989Z,16.59
2022-10-18T10:15:37.185Z,16.41
2022-10-18T10:20:51.112Z,16.41
2022-10-18T10:25:57.036Z,16.46
2022-10-18T10:31:33.754Z,16.46
2022-10-18T10:36:55.725Z,16.32
2022-10-18T10:42:01.244Z,16.28
2022-10-18T10:47:06.162Z,16.21
2022-10-18T10:52:28.596Z,16.10
2022-10-18T10:57:32.969Z,16.08
2022-10-18T11:02:36.819Z,16.13
2022-10-18T11:07:46.985Z,16.21
2022-10-18T11:13:30.128Z,16.30
2022-10-18T11:18:38.464Z,16.40
2022-10-18T11:23:43.821Z,16.41
2022-10-18T11:29:10.768Z,16.35
2022-10-18T11:34:16.610Z,16.25
2022-10-18T11:39:41.019Z,16.18
2022-10-18T11:44:59.202Z,16.18
2022-10-18T11:50:31.055Z,16.17
2022-10-18T11:55:49.254Z,16.14
2022-10-18T12:01:29.936Z,16.13
2022-10-18T12:06:39.073Z,16.19
2022-10-18T12:12:06.391Z,16.25
2022-10-18T12:17:49.903Z,16.24
2022-10-18T12:23:04.131Z,16.13
2022-10-18T12:28:26.055Z,16.13
2022-10-18T12:33:35.929Z,16.14
2022-10-18T12:38:43.801Z,16.15
2022-10-18T12:43:53.405Z,16.06
2022-10-18T12:49:04.873Z,15.95
2022-10-18T12:54:12.560Z,15.92
2022-10-18T12:59:15.448Z,15.91
2022-10-18T13:04:33.776Z,15.84
2022-10-18T13:09:41.611Z,15.85
2022-10-18T13:15:24.318Z,15.91
2022-10-18T13:20:44.287Z,15.92
2022-10-18T13:26:05.471Z,15.97
2022-10-18T13:31:38.209Z,15.96
2022-10-18T13:36:42.376Z,15.86
2022-10-18T13:41:47.957Z,15.74
2022-10-18T13:46:51.559Z,15.68
2022-10-18T13:52:06.574Z,15.54
2022-10-18T13:57:27.506Z,15.42
2022-10-18T14:02:51.706Z,15.33
2022-10-18T14:08:10.224Z,15.24
2022-10-18T14:13:23.340Z,15.18
2022-10-18T14:18:33.533Z,15.14
2022-10-18T14:23:44.822Z,15.15
2022-10-18T14:29:06.392Z,15.14
2022-10-18T14:34:15.393Z,15.09
2022-10-18T14:39:26.818Z,15.04
2022-10-18T14:44:34.790Z,14.99
2022-10-18T14:49:44.690Z,14.96
2022-10-18T14:54:47.541Z,14.84
2022-10-18T14:59:58.289Z,14.78
2022-10-18T15:05:16.340Z,14.73
2022-10-18T15:10:27.240Z,14.70
2022-10-18T15:15:32.221Z,14.65
2022-10-18T15:20:39.607Z,14.54
2022-10-18T15:25:42.983Z,14.43
2022-10-18T15:30:46.041Z,14.40
2022-10-18T15:35:49.545Z,14.41
2022-10-18T15:40:52.714Z,14.33
2022-10-18T15:46:05.104Z,14.31
2022-10-18T15:51:26.593Z,14.29
2022-10-18T15:56:37.409Z,14.27
2022-10-18T16:01:44.507Z,14.22
2022-10-18T16:06:47.308Z,14.19
2022-10-18T16:11:56.373Z,14.20
2022-10-18T16:17:02.462Z,14.23
2022-10-18T16:22:07.132Z,14.25
2022-10-18T16:27:10.222Z,14.25
2022-10-18T16:32:12.946Z,14.22
2022-10-18T16:37:15.662Z,14.18
2022-10-18T16:42:18.787Z,14.13
2022-10-18T16:47:21.672Z,14.08
2022-10-18T16:52:24.670Z,14.01
2022-10-18T16:57:27.362Z,13.98
2022-10-18T17:02:30.338Z,13.95
2022-10-18T17:07:33.666Z,13.95
2022-10-18T17:12:36.376Z,13.94
2022-10-18T17:17:39.634Z,13.89
2022-10-18T17:22:42.491Z,13.83
2022-10-18T17:27:46.407Z,13.80
2022-10-18T17:32:49.150Z,13.80
2022-10-18T17:37:53.543Z,13.75
2022-10-18T17:42:56.470Z,13.63
2022-10-18T17:47:59.156Z,13.55
2022-10-18T17:53:03.069Z,13.50
2022-10-18T17:58:06.147Z,13.42
2022-10-18T18:03:09.349Z,13.31
2022-10-18T18:08:12.096Z,13.25
2022-10-18T18:13:17.641Z,13.25
2022-10-18T18:18:22.585Z,13.26
2022-10-18T18:23:25.875Z,13.23
2022-10-18T18:28:29.102Z,13.13
2022-10-18T18:33:33.389Z,13.03
2022-10-18T18:38:38.882Z,12.94
2022-10-18T18:43:49.631Z,12.87
2022-10-18T18:48:52.960Z,12.82
2022-10-18T18:53:55.687Z,12.75
2022-10-18T18:59:01.563Z,12.65
2022-10-18T19:04:06.428Z,12.54
2022-10-18T19:09:26.446Z,12.43
2022-10-18T19:14:30.766Z,12.32
2022-10-18T19:19:34.291Z,12.28
2022-10-18T19:24:37.351Z,12.25
2022-10-18T19:29:41.056Z,12.16
2022-10-18T19:34:44.205Z,12.02
2022-10-18T19:39:47.008Z,11.89
2022-10-18T19:44:49.888Z,11.79
2022-10-18T19:49:53.898Z,11.67
2022-10-18T19:54:56.643Z,11.50
2022-10-18T20:00:00.778Z,11.36
2022-10-18T20:05:04.167Z,11.24
2022-10-18T20:10:07.052Z,11.13
2022-10-18T20:15:10.764Z,11.02
2022-10-18T20:20:13.490Z,10.89
2022-10-18T20:25:16.255Z,10.76
2022-10-18T20:30:18.929Z,10.65
2022-10-18T20:35:26.091Z,10.57
2022-10-18T20:40:28.942Z,10.48
2022-10-18T20:45:31.683Z,10.41
2022-10-18T20:50:34.371Z,10.35
2022-10-18T20:55:38.850Z,10.36
2022-10-18T21:00:41.578Z,10.39
2022-10-18T21:05:44.256Z,10.37
2022-10-18T21:10:46.993Z,10.35
2022-10-18T21:15:57.489Z,10.34
2022-10-18T21:21:14.883Z,10.35
2022-10-18T21:26:27.790Z,10.38
2022-10-18T21:31:35.962Z,10.43
2022-10-18T21:36:39.744Z,10.47
2022-10-18T21:41:43.181Z,10.48
2022-10-18T21:46:46.900Z,10.52
2022-10-18T21:51:49.674Z,10.54
2022-10-18T21:56:52.371Z,10.56
2022-10-18T22:01:55.287Z,10.60
2022-10-18T22:06:58.235Z,10.61
2022-10-18T22:12:00.991Z,10.62
2022-10-18T22:17:04.057Z,10.66
2022-10-18T22:22:06.766Z,10.72
2022-10-18T22:27:09.492Z,10.75
2022-10-18T22:32:12.187Z,10.76
2022-10-18T22:37:14.838Z,10.78
2022-10-18T22:42:17.503Z,10.79
2022-10-18T22:47:20.134Z,10.77
2022-10-18T22:52:22.838Z,10.72
2022-10-18T22:57:25.471Z,10.59
2022-10-18T23:02:28.179Z,10.48
2022-10-18T23:07:30.809Z,10.44
2022-10-18T23:12:33.667Z,10.47
2022-10-18T23:17:37.128Z,10.49
2022-10-18T23:22:40.126Z,10.46
2022-10-18T23:32:50.552Z,10.35
2022-10-18T23:37:53.185Z,10.29
2022-10-18T23:42:55.966Z,10.24
2022-10-18T23:47:58.622Z,10.16
2022-10-18T23:53:01.335Z,10.08
2022-10-18T23:58:04.050Z,10.06
